Time;durP1;ratioP1;P1;durP2;ratioP2;P2;SDS_P1;SDS_P2;PMS_P1;PMS_P2;Temp;Humidity;BMP_temperature;BMP_pressure;BME280_temperature;BME280_humidity;BME280_pressure;Samples;Min_cycle;Max_cycle;Signal;HPM_P1;HPM_P2
2023/07/16 00:00:30;;;;;;;36.63;28.23;;;19.10;99.90;;;;;;5041855;28;20051;-61
2023/07/16 00:02:55;;;;;;;38.92;30.60;;;19.10;99.90;;;;;;5048723;28;20037;-62
2023/07/16 00:05:21;;;;;;;42.35;30.80;;;19.10;99.90;;;;;;5050446;28;20025;-62
2023/07/16 00:07:47;;;;;;;37.00;30.02;;;19.00;99.90;;;;;;5049038;28;20045;-62
2023/07/16 00:10:12;;;;;;;32.55;27.42;;;19.00;99.90;;;;;;5045372;28;20039;-62
2023/07/16 00:12:38;;;;;;;38.42;29.73;;;19.00;99.90;;;;;;5032716;28;20072;-62
2023/07/16 00:15:06;;;;;;;37.70;30.35;;;19.10;99.90;;;;;;5033082;28;20049;-62
2023/07/16 00:17:32;;;;;;;41.30;30.60;;;19.00;99.90;;;;;;5049318;28;20368;-62
2023/07/16 00:19:58;;;;;;;41.03;30.98;;;19.00;99.90;;;;;;5048282;28;20037;-62
2023/07/16 00:22:23;;;;;;;38.75;27.98;;;19.10;99.90;;;;;;5038949;28;20081;-62
2023/07/16 00:24:49;;;;;;;31.23;27.55;;;19.10;99.90;;;;;;5030650;28;20048;-61
2023/07/16 00:27:15;;;;;;;33.35;28.08;;;19.10;99.90;;;;;;5045878;28;20116;-62
2023/07/16 00:29:40;;;;;;;34.30;27.23;;;19.10;99.90;;;;;;5034239;28;20513;-62
2023/07/16 00:32:06;;;;;;;30.38;26.02;;;19.20;99.90;;;;;;5049019;28;20041;-62
2023/07/16 00:34:32;;;;;;;35.08;28.92;;;19.20;99.90;;;;;;5050349;28;20041;-62
2023/07/16 00:37:01;;;;;;;36.05;28.27;;;19.30;99.90;;;;;;5049788;28;20049;-62
2023/07/16 00:39:28;;;;;;;36.95;29.27;;;19.20;99.90;;;;;;5046530;28;20041;-62
2023/07/16 00:41:53;;;;;;;32.15;25.73;;;19.20;99.90;;;;;;5044132;28;20062;-62
2023/07/16 00:44:19;;;;;;;35.20;28.00;;;19.20;99.90;;;;;;5030345;28;20120;-62
2023/07/16 00:46:44;;;;;;;32.05;28.58;;;19.20;99.90;;;;;;5044773;28;20044;-62
2023/07/16 00:49:10;;;;;;;38.33;29.60;;;19.20;99.90;;;;;;5034895;28;20033;-62
2023/07/16 00:51:36;;;;;;;38.78;30.25;;;19.20;99.90;;;;;;5045986;28;20061;-62
2023/07/16 00:54:02;;;;;;;31.98;26.17;;;19.10;99.90;;;;;;5045921;28;20681;-62
2023/07/16 00:56:28;;;;;;;35.55;29.67;;;19.10;99.90;;;;;;5049869;28;20037;-62
2023/07/16 00:58:54;;;;;;;32.00;27.70;;;19.10;99.90;;;;;;5049546;28;20037;-62
2023/07/16 01:01:19;;;;;;;30.10;26.45;;;19.10;99.90;;;;;;5048813;28;20479;-61
2023/07/16 01:03:45;;;;;;;29.75;25.55;;;19.20;99.90;;;;;;5049044;28;20040;-61
2023/07/16 01:06:15;;;;;;;32.08;25.65;;;19.20;99.90;;;;;;5049497;28;20547;-62
2023/07/16 01:09:02;;;;;;;38.35;28.25;;;19.30;99.90;;;;;;5048077;28;20041;-61
2023/07/16 01:11:30;;;;;;;30.38;27.10;;;19.30;99.90;;;;;;5043044;28;20124;-62
2023/07/16 01:13:56;;;;;;;38.10;28.20;;;19.30;99.90;;;;;;5031376;28;20038;-62
2023/07/16 01:16:24;;;;;;;33.92;27.27;;;19.30;99.90;;;;;;5039782;28;20482;-61
2023/07/16 01:18:50;;;;;;;34.38;27.75;;;19.30;99.90;;;;;;5048803;28;20051;-62
2023/07/16 01:21:19;;;;;;;31.63;27.35;;;19.30;99.90;;;;;;5046594;28;20072;-62
2023/07/16 01:24:20;;;;;;;31.75;27.33;;;19.40;99.90;;;;;;5048297;28;20044;-61
2023/07/16 01:27:10;;;;;;;32.30;27.55;;;19.40;99.90;;;;;;5049641;28;20037;-62
2023/07/16 01:29:45;;;;;;;34.05;26.30;;;19.40;99.90;;;;;;5048792;28;20123;-63
2023/07/16 01:32:12;;;;;;;28.70;25.63;;;19.50;99.90;;;;;;5044928;28;20055;-62
2023/07/16 01:34:39;;;;;;;31.33;26.30;;;19.40;99.90;;;;;;5033492;28;20072;-62
2023/07/16 01:37:05;;;;;;;32.20;28.48;;;19.70;99.90;;;;;;5044511;28;20410;-61
2023/07/16 01:39:34;;;;;;;31.52;28.25;;;19.70;99.90;;;;;;5046678;28;20040;-61
2023/07/16 01:42:00;;;;;;;31.13;25.08;;;19.60;99.90;;;;;;5052292;28;20053;-62
2023/07/16 01:44:26;;;;;;;36.78;28.38;;;19.60;99.90;;;;;;5053038;28;20598;-62
2023/07/16 01:47:03;;;;;;;33.45;27.83;;;19.70;99.90;;;;;;5052483;28;20503;-62
2023/07/16 01:49:29;;;;;;;32.13;25.67;;;19.70;99.90;;;;;;5038918;28;20033;-62
2023/07/16 01:51:54;;;;;;;29.77;26.55;;;19.80;99.90;;;;;;5044737;28;20041;-61
2023/07/16 01:54:20;;;;;;;31.05;27.75;;;19.70;99.90;;;;;;5051401;28;20068;-62
2023/07/16 01:56:45;;;;;;;31.60;26.77;;;19.70;99.90;;;;;;5048749;28;20045;-62
2023/07/16 01:59:11;;;;;;;34.08;28.15;;;19.80;99.90;;;;;;5052383;28;20068;-62
2023/07/16 02:01:36;;;;;;;35.72;29.08;;;19.80;99.90;;;;;;5052542;28;20128;-61
2023/07/16 02:04:02;;;;;;;35.78;27.98;;;19.80;99.90;;;;;;5052147;28;20033;-62
2023/07/16 02:06:28;;;;;;;32.13;28.40;;;19.80;99.90;;;;;;5052488;28;20033;-61
2023/07/16 02:08:53;;;;;;;37.13;29.10;;;19.80;99.90;;;;;;5043139;28;20095;-61
2023/07/16 02:11:19;;;;;;;32.88;29.50;;;19.70;99.90;;;;;;5039431;28;20041;-61
2023/07/16 02:13:44;;;;;;;29.98;26.80;;;19.60;99.90;;;;;;5051735;28;20037;-62
2023/07/16 02:16:10;;;;;;;39.58;29.13;;;19.60;99.90;;;;;;5052480;28;20479;-62
2023/07/16 02:18:36;;;;;;;29.27;26.50;;;19.60;99.90;;;;;;5044952;28;20041;-62
2023/07/16 02:21:02;;;;;;;33.58;29.38;;;19.70;99.90;;;;;;5050807;28;20041;-62
2023/07/16 02:23:28;;;;;;;39.08;31.42;;;19.80;99.90;;;;;;5051808;28;20036;-62
2023/07/16 02:25:53;;;;;;;30.88;27.17;;;19.70;99.90;;;;;;5051984;28;20033;-63
2023/07/16 02:28:19;;;;;;;30.30;27.08;;;19.60;99.90;;;;;;5047869;28;20467;-62
2023/07/16 02:30:44;;;;;;;29.90;26.80;;;19.60;99.90;;;;;;5033223;28;20044;-62
2023/07/16 02:33:10;;;;;;;32.10;28.77;;;19.70;99.90;;;;;;5049781;28;20084;-62
2023/07/16 02:35:35;;;;;;;35.10;31.50;;;19.60;99.90;;;;;;5051656;28;20037;-62
2023/07/16 02:38:01;;;;;;;35.42;30.92;;;19.60;99.90;;;;;;5044725;28;20044;-62
2023/07/16 02:40:26;;;;;;;38.05;30.50;;;19.50;99.90;;;;;;5051850;28;20105;-62
2023/07/16 02:42:52;;;;;;;37.72;31.67;;;19.50;99.90;;;;;;5045851;28;20519;-62
2023/07/16 02:45:18;;;;;;;33.17;29.70;;;19.50;99.90;;;;;;5032158;28;20096;-62
2023/07/16 02:47:43;;;;;;;33.53;28.80;;;19.50;99.90;;;;;;5044130;28;20042;-62
2023/07/16 02:50:09;;;;;;;37.90;30.00;;;19.50;99.90;;;;;;5048840;28;20040;-62
2023/07/16 02:52:35;;;;;;;39.95;30.42;;;19.50;99.90;;;;;;5050983;28;20079;-62
2023/07/16 02:55:00;;;;;;;35.40;30.60;;;19.60;99.90;;;;;;5048962;28;20069;-62
2023/07/16 02:57:26;;;;;;;34.55;30.85;;;19.60;99.90;;;;;;5050605;28;20040;-62
2023/07/16 02:59:51;;;;;;;35.85;29.02;;;19.60;99.90;;;;;;5049151;28;20501;-62
2023/07/16 03:02:17;;;;;;;35.05;31.15;;;19.50;99.90;;;;;;5051133;28;20407;-61
2023/07/16 03:04:43;;;;;;;43.40;33.70;;;19.50;99.90;;;;;;5033218;28;20410;-62
2023/07/16 03:07:08;;;;;;;38.13;31.55;;;19.40;99.90;;;;;;5049529;28;20493;-61
2023/07/16 03:09:34;;;;;;;38.72;30.65;;;19.50;99.90;;;;;;5050913;28;20048;-62
2023/07/16 03:11:59;;;;;;;44.67;31.60;;;19.40;99.90;;;;;;5049400;28;20419;-61
2023/07/16 03:14:25;;;;;;;34.03;29.08;;;19.50;99.90;;;;;;5051127;28;20554;-62
2023/07/16 03:16:50;;;;;;;35.65;30.88;;;19.50;99.90;;;;;;5051392;28;20491;-62
2023/07/16 03:19:16;;;;;;;35.03;31.23;;;19.50;99.90;;;;;;5050795;28;20033;-61
2023/07/16 03:21:41;;;;;;;34.35;30.65;;;19.60;99.90;;;;;;5036522;28;20072;-62
2023/07/16 03:24:07;;;;;;;36.90;29.80;;;19.40;99.90;;;;;;5043208;28;20036;-61
2023/07/16 03:26:32;;;;;;;39.00;30.98;;;19.50;99.90;;;;;;5041537;28;20033;-62
2023/07/16 03:28:58;;;;;;;34.83;29.75;;;19.40;99.90;;;;;;5048147;28;20059;-62
2023/07/16 03:31:24;;;;;;;35.08;30.85;;;19.40;99.90;;;;;;5048715;28;20073;-62
2023/07/16 03:33:49;;;;;;;34.17;29.92;;;19.40;99.90;;;;;;5046859;28;20045;-62
2023/07/16 03:36:15;;;;;;;37.22;32.20;;;19.50;99.90;;;;;;5050554;28;20087;-61
2023/07/16 03:38:40;;;;;;;37.10;29.80;;;19.50;99.90;;;;;;5049896;28;20399;-62
2023/07/16 03:41:06;;;;;;;37.72;32.85;;;19.50;99.90;;;;;;5048342;28;20037;-62
2023/07/16 03:43:32;;;;;;;39.72;32.95;;;19.50;99.90;;;;;;5049341;28;20403;-62
2023/07/16 03:45:57;;;;;;;39.58;32.92;;;19.50;99.90;;;;;;5050979;28;20380;-62
2023/07/16 03:48:23;;;;;;;36.88;29.85;;;19.60;99.90;;;;;;5041658;28;20120;-62
2023/07/16 03:50:48;;;;;;;34.38;30.67;;;19.40;99.90;;;;;;5047619;28;20550;-62
2023/07/16 03:53:14;;;;;;;33.40;29.98;;;19.50;99.90;;;;;;5037309;28;20037;-62
2023/07/16 03:55:39;;;;;;;40.85;31.17;;;19.50;99.90;;;;;;5030455;28;20094;-62
2023/07/16 03:58:05;;;;;;;36.80;29.65;;;19.50;99.90;;;;;;5045764;28;20067;-61
2023/07/16 04:00:31;;;;;;;35.78;30.58;;;19.50;99.90;;;;;;5046713;28;20038;-62
2023/07/16 04:02:57;;;;;;;42.55;32.10;;;19.60;99.90;;;;;;5043991;28;20083;-62
2023/07/16 04:05:22;;;;;;;40.38;32.67;;;19.50;99.90;;;;;;5050498;28;20033;-61
2023/07/16 04:07:48;;;;;;;44.50;34.13;;;19.50;99.90;;;;;;5050243;28;20029;-61
2023/07/16 04:10:14;;;;;;;43.38;33.50;;;19.60;99.90;;;;;;5049973;28;20045;-62
2023/07/16 04:12:39;;;;;;;37.33;32.95;;;19.60;99.90;;;;;;5045403;28;20487;-62
2023/07/16 04:15:08;;;;;;;35.40;30.52;;;19.60;99.90;;;;;;5050451;28;20577;-61
2023/07/16 04:17:34;;;;;;;37.47;33.47;;;19.60;99.90;;;;;;5051627;28;20047;-62
2023/07/16 04:19:59;;;;;;;35.63;31.88;;;19.60;99.90;;;;;;5043909;28;20041;-62
2023/07/16 04:22:25;;;;;;;39.97;32.92;;;19.60;99.90;;;;;;5050318;28;20037;-62
2023/07/16 04:24:51;;;;;;;39.28;31.45;;;19.60;99.90;;;;;;5050705;28;20566;-62
2023/07/16 04:27:16;;;;;;;35.50;31.65;;;19.60;1.00;;;;;;5049859;28;20376;-62
2023/07/16 04:29:42;;;;;;;51.97;41.80;;;19.50;1.00;;;;;;5049360;28;20064;-62
2023/07/16 04:32:07;;;;;;;54.05;40.95;;;19.10;13.50;;;;;;5045082;28;20076;-62
2023/07/16 04:34:33;;;;;;;47.50;39.42;;;18.80;99.90;;;;;;5028715;28;20040;-62
2023/07/16 04:36:58;;;;;;;45.53;40.30;;;18.60;99.90;;;;;;5033893;28;20037;-62
2023/07/16 04:39:24;;;;;;;53.78;39.75;;;18.70;1.00;;;;;;5049348;28;20503;-63
2023/07/16 04:41:50;;;;;;;51.95;40.38;;;18.50;18.30;;;;;;5038516;28;20537;-62
2023/07/16 04:44:15;;;;;;;47.60;39.33;;;18.50;99.90;;;;;;5049665;28;20057;-62
2023/07/16 04:46:41;;;;;;;42.38;37.55;;;18.60;99.90;;;;;;5049920;28;20041;-62
2023/07/16 04:49:07;;;;;;;54.33;41.00;;;18.70;99.90;;;;;;5036947;28;20038;-61
2023/07/16 04:51:32;;;;;;;46.15;38.22;;;18.70;99.90;;;;;;5049917;28;20099;-62
2023/07/16 04:53:58;;;;;;;49.33;37.70;;;18.80;1.00;;;;;;5033782;28;20127;-62
2023/07/16 04:56:23;;;;;;;43.28;34.17;;;18.90;1.00;;;;;;5049664;28;20048;-62
2023/07/16 04:58:49;;;;;;;39.85;34.70;;;18.90;99.90;;;;;;5049562;28;20083;-62
2023/07/16 05:01:14;;;;;;;44.35;36.75;;;18.90;99.90;;;;;;5028805;28;20041;-62
2023/07/16 05:03:40;;;;;;;45.15;34.70;;;18.90;99.90;;;;;;5045748;28;20044;-62
2023/07/16 05:06:06;;;;;;;40.05;34.63;;;18.80;99.90;;;;;;5052804;28;20037;-62
2023/07/16 05:08:31;;;;;;;46.00;35.47;;;18.90;99.90;;;;;;5046710;28;20033;-62
2023/07/16 05:10:57;;;;;;;56.22;37.10;;;18.90;99.90;;;;;;5040972;28;20554;-61
2023/07/16 05:13:22;;;;;;;49.17;38.22;;;19.00;99.90;;;;;;5038208;28;20056;-62
2023/07/16 05:15:48;;;;;;;46.25;38.72;;;19.00;99.90;;;;;;5033525;28;20034;-62
2023/07/16 05:18:14;;;;;;;48.60;37.95;;;19.00;99.90;;;;;;5044541;28;20096;-62
2023/07/16 05:20:39;;;;;;;55.05;36.58;;;19.00;1.00;;;;;;5052625;28;20423;-62
2023/07/16 05:23:05;;;;;;;45.63;35.88;;;19.10;1.00;;;;;;5052312;28;20056;-62
2023/07/16 05:25:30;;;;;;;43.05;35.28;;;19.10;1.00;;;;;;5042286;28;20126;-62
2023/07/16 05:27:56;;;;;;;40.78;34.13;;;19.10;99.90;;;;;;5042676;28;20040;-62
2023/07/16 05:30:22;;;;;;;43.17;33.50;;;19.20;99.90;;;;;;5052975;28;20025;-62
2023/07/16 05:32:48;;;;;;;41.33;32.42;;;19.20;99.90;;;;;;5051972;28;20041;-62
2023/07/16 05:35:13;;;;;;;50.67;38.13;;;19.00;1.00;;;;;;5053420;28;20036;-61
2023/07/16 05:37:39;;;;;;;49.00;38.10;;;19.00;1.00;;;;;;5052896;28;20465;-62
2023/07/16 05:40:08;;;;;;;44.05;33.10;;;19.10;1.00;;;;;;5052203;28;20032;-62
2023/07/16 05:42:34;;;;;;;43.13;34.58;;;19.00;1.00;;;;;;5051211;28;20056;-62
2023/07/16 05:44:59;;;;;;;45.42;34.67;;;19.10;1.00;;;;;;5048415;28;20560;-62
2023/07/16 05:47:25;;;;;;;42.25;35.90;;;19.20;1.00;;;;;;5052046;28;20513;-62
2023/07/16 05:49:50;;;;;;;44.38;35.50;;;19.20;99.90;;;;;;5035635;28;20047;-62
2023/07/16 05:52:16;;;;;;;45.70;36.30;;;19.20;99.90;;;;;;5050383;28;20042;-62
2023/07/16 05:54:44;;;;;;;44.55;36.50;;;19.10;99.90;;;;;;5051633;28;20395;-62
2023/07/16 05:57:10;;;;;;;48.50;35.97;;;19.20;99.90;;;;;;5052606;28;20064;-61
2023/07/16 05:59:37;;;;;;;47.97;36.58;;;19.20;99.90;;;;;;5044561;28;20665;-61
2023/07/16 06:02:06;;;;;;;43.45;35.22;;;19.20;99.90;;;;;;5048689;28;20049;-62
2023/07/16 06:04:31;;;;;;;37.72;33.05;;;19.20;99.90;;;;;;5041003;28;20044;-61
2023/07/16 06:06:57;;;;;;;43.05;33.92;;;19.30;99.90;;;;;;5049409;28;20037;-62
2023/07/16 06:09:23;;;;;;;46.13;35.85;;;19.50;99.90;;;;;;5040142;28;20087;-62
2023/07/16 06:11:49;;;;;;;47.63;35.40;;;19.60;99.90;;;;;;5041543;28;20047;-61
2023/07/16 06:14:16;;;;;;;43.05;35.70;;;19.50;99.90;;;;;;5042131;28;20399;-62
2023/07/16 06:16:42;;;;;;;42.67;34.72;;;19.40;99.90;;;;;;5043825;28;20040;-62
2023/07/16 06:19:07;;;;;;;41.38;32.25;;;19.30;99.90;;;;;;5045242;28;20037;-62
2023/07/16 06:21:33;;;;;;;48.20;35.65;;;19.30;99.90;;;;;;5044342;28;20041;-62
2023/07/16 06:23:58;;;;;;;42.25;34.08;;;19.30;99.90;;;;;;5042600;28;20541;-62
2023/07/16 06:26:24;;;;;;;43.22;34.72;;;19.50;99.90;;;;;;5036005;28;20048;-62
2023/07/16 06:28:50;;;;;;;38.55;31.85;;;19.50;99.90;;;;;;5050044;28;20052;-62
2023/07/16 06:31:16;;;;;;;38.80;31.83;;;19.30;99.90;;;;;;5042912;28;20026;-62
2023/07/16 06:33:42;;;;;;;46.78;35.33;;;19.30;99.90;;;;;;5037426;28;20305;-62
2023/07/16 06:36:08;;;;;;;46.63;33.83;;;19.30;99.90;;;;;;5050029;28;20399;-62
2023/07/16 06:38:33;;;;;;;41.83;33.20;;;19.30;99.90;;;;;;5042195;28;20510;-62
2023/07/16 06:40:59;;;;;;;39.45;34.92;;;19.30;99.90;;;;;;5040180;28;20062;-61
2023/07/16 06:43:24;;;;;;;45.70;36.25;;;19.30;99.90;;;;;;5034665;28;20057;-62
2023/07/16 06:45:53;;;;;;;49.60;36.33;;;19.30;99.90;;;;;;5038014;28;20130;-62
2023/07/16 06:48:18;;;;;;;44.10;37.83;;;19.30;99.90;;;;;;5037267;28;20044;-62
2023/07/16 06:50:45;;;;;;;50.50;38.92;;;19.40;1.00;;;;;;5033230;28;20041;-62
2023/07/16 06:53:10;;;;;;;47.50;37.85;;;19.30;1.00;;;;;;5035309;28;20037;-62
2023/07/16 06:55:36;;;;;;;45.60;36.85;;;19.30;1.00;;;;;;5044777;28;20041;-62
2023/07/16 06:58:02;;;;;;;36.80;31.35;;;19.40;1.00;;;;;;5040427;28;20037;-62
2023/07/16 07:00:28;;;;;;;39.83;30.15;;;19.50;1.00;;;;;;5037731;28;20033;-62
2023/07/16 07:02:54;;;;;;;38.00;29.17;;;19.40;99.90;;;;;;5038376;28;20095;-62
2023/07/16 07:05:20;;;;;;;42.90;30.80;;;19.50;99.90;;;;;;5051187;28;20068;-62
2023/07/16 07:07:45;;;;;;;49.45;32.25;;;19.70;99.90;;;;;;5047713;28;20032;-62
2023/07/16 07:10:12;;;;;;;47.80;30.10;;;19.80;91.20;;;;;;5040183;28;20785;-62
2023/07/16 07:12:38;;;;;;;33.20;26.85;;;20.00;1.00;;;;;;5038623;28;20037;-62
2023/07/16 07:15:09;;;;;;;32.33;26.83;;;20.30;1.00;;;;;;5032562;28;20095;-62
2023/07/16 07:17:35;;;;;;;38.70;29.10;;;20.60;1.00;;;;;;5036751;28;20061;-62
2023/07/16 07:20:01;;;;;;;37.97;25.92;;;20.80;99.90;;;;;;5040113;28;20037;-62
2023/07/16 07:22:27;;;;;;;36.03;26.02;;;20.90;99.90;;;;;;5039325;28;20041;-62
2023/07/16 07:24:52;;;;;;;36.78;27.42;;;21.00;99.90;;;;;;5048433;28;20044;-62
2023/07/16 07:27:18;;;;;;;30.05;23.73;;;20.90;36.50;;;;;;5032640;28;20083;-61
2023/07/16 07:29:46;;;;;;;40.80;27.65;;;20.70;1.00;;;;;;5040895;28;20048;-62
2023/07/16 07:32:12;;;;;;;38.25;30.65;;;20.50;1.00;;;;;;5038898;28;20049;-61
2023/07/16 07:34:38;;;;;;;42.90;30.33;;;20.50;1.00;;;;;;5038051;28;20045;-62
2023/07/16 07:37:04;;;;;;;38.45;27.15;;;20.60;1.00;;;;;;5043056;28;20072;-62
2023/07/16 07:39:30;;;;;;;35.28;27.13;;;21.00;51.10;;;;;;5039294;28;20330;-61
2023/07/16 07:41:55;;;;;;;40.58;29.73;;;20.90;1.00;;;;;;5040057;28;20048;-62
2023/07/16 07:44:21;;;;;;;35.20;26.27;;;20.70;1.00;;;;;;5042789;28;20048;-62
2023/07/16 07:46:47;;;;;;;42.30;29.67;;;20.60;1.00;;;;;;5040294;28;20033;-63
2023/07/16 07:49:12;;;;;;;34.55;30.50;;;20.50;1.00;;;;;;5039807;28;20555;-61
2023/07/16 07:51:38;;;;;;;38.55;32.10;;;20.50;1.00;;;;;;5038908;28;20041;-61
2023/07/16 07:54:03;;;;;;;41.58;34.35;;;20.60;1.80;;;;;;5036667;28;20036;-62
2023/07/16 07:56:30;;;;;;;39.22;35.08;;;20.60;18.50;;;;;;5039371;28;20877;-62
2023/07/16 07:58:55;;;;;;;40.13;35.08;;;20.50;66.60;;;;;;5039450;28;20048;-64
2023/07/16 08:01:21;;;;;;;38.78;34.50;;;20.40;99.90;;;;;;5048850;28;20106;-61
2023/07/16 08:03:47;;;;;;;44.80;33.85;;;20.20;99.90;;;;;;5049576;28;20102;-61
2023/07/16 08:06:12;;;;;;;43.30;33.75;;;20.20;99.90;;;;;;5049306;28;20033;-61
2023/07/16 08:08:38;;;;;;;40.15;34.22;;;20.40;99.90;;;;;;5048383;28;20079;-61
2023/07/16 08:11:03;;;;;;;41.30;34.40;;;20.40;99.90;;;;;;5034513;28;20498;-62
2023/07/16 08:13:29;;;;;;;41.38;31.10;;;20.50;99.90;;;;;;5051313;28;20174;-62
2023/07/16 08:15:55;;;;;;;40.15;33.42;;;20.60;99.90;;;;;;5034327;28;20037;-61
2023/07/16 08:18:20;;;;;;;38.63;33.60;;;20.50;99.90;;;;;;5048564;28;20043;-62
2023/07/16 08:20:47;;;;;;;39.13;33.17;;;20.50;99.90;;;;;;5044760;28;20039;-62
2023/07/16 08:23:13;;;;;;;38.28;32.53;;;21.40;99.90;;;;;;5049095;28;20037;-62
2023/07/16 08:25:38;;;;;;;35.42;29.55;;;20.60;99.90;;;;;;5030425;28;20041;-62
2023/07/16 08:28:04;;;;;;;28.75;24.73;;;20.90;99.90;;;;;;5031242;28;20115;-67
2023/07/16 08:30:31;;;;;;;36.13;22.27;;;21.10;99.90;;;;;;5040298;28;20037;-61
2023/07/16 08:32:57;;;;;;;31.85;22.15;;;21.30;1.00;;;;;;5033540;28;20049;-61
2023/07/16 08:35:22;;;;;;;35.78;21.88;;;21.30;1.00;;;;;;5039555;28;20037;-61
2023/07/16 08:37:48;;;;;;;29.45;22.02;;;21.70;99.90;;;;;;5048603;28;20037;-62
2023/07/16 08:40:14;;;;;;;28.83;20.70;;;21.90;99.90;;;;;;5038749;28;20042;-62
2023/07/16 08:42:40;;;;;;;31.38;20.90;;;22.00;99.90;;;;;;5045211;28;20081;-62
2023/07/16 08:45:10;;;;;;;29.85;23.75;;;21.90;99.90;;;;;;5043266;28;20048;-61
2023/07/16 08:47:36;;;;;;;31.17;22.60;;;21.90;99.90;;;;;;5036107;28;20124;-62
2023/07/16 08:50:03;;;;;;;35.65;24.98;;;21.70;99.90;;;;;;5039719;28;20132;-61
2023/07/16 08:52:29;;;;;;;33.50;25.15;;;21.60;99.90;;;;;;5035789;28;20041;-62
2023/07/16 08:54:55;;;;;;;34.53;25.55;;;21.50;99.90;;;;;;5036139;28;20423;-62
2023/07/16 08:57:22;;;;;;;33.60;22.42;;;21.50;99.90;;;;;;5039394;28;20040;-62
2023/07/16 08:59:51;;;;;;;26.15;23.10;;;21.20;99.90;;;;;;5045105;28;20072;-62
2023/07/16 09:02:18;;;;;;;37.03;25.73;;;21.00;99.90;;;;;;5040869;28;20135;-62
2023/07/16 09:04:44;;;;;;;31.23;22.95;;;21.30;99.90;;;;;;5037390;28;20053;-62
2023/07/16 09:07:09;;;;;;;28.92;21.15;;;21.60;99.90;;;;;;5045574;28;20033;-62
2023/07/16 09:09:35;;;;;;;20.48;17.83;;;22.10;99.90;;;;;;5036929;28;20106;-62
2023/07/16 09:12:02;;;;;;;25.50;19.77;;;22.40;99.90;;;;;;5045534;28;20047;-62
2023/07/16 09:14:27;;;;;;;29.02;25.83;;;22.20;99.90;;;;;;5035064;28;20040;-62
2023/07/16 09:16:53;;;;;;;31.77;27.52;;;21.70;99.90;;;;;;5041087;28;20030;-61
2023/07/16 09:19:21;;;;;;;40.63;35.22;;;21.30;99.90;;;;;;5043625;28;20033;-62
2023/07/16 09:21:50;;;;;;;43.00;34.13;;;21.10;99.90;;;;;;5038341;28;20038;-62
2023/07/16 09:24:17;;;;;;;39.45;30.15;;;21.00;99.90;;;;;;5032531;28;20044;-61
2023/07/16 09:26:54;;;;;;;35.70;28.67;;;20.90;99.90;;;;;;5043969;28;20040;-62
2023/07/16 09:29:20;;;;;;;32.92;27.23;;;20.70;99.90;;;;;;5041223;28;20067;-62
2023/07/16 09:31:57;;;;;;;33.88;26.95;;;20.60;99.90;;;;;;5048504;28;20032;-62
2023/07/16 09:34:26;;;;;;;33.80;25.58;;;21.20;99.90;;;;;;5030715;28;20040;-62
2023/07/16 09:36:52;;;;;;;30.10;25.10;;;21.60;99.90;;;;;;5039231;28;20079;-62
2023/07/16 09:39:19;;;;;;;28.67;24.25;;;21.80;99.90;;;;;;5040737;28;20037;-62
2023/07/16 09:41:47;;;;;;;26.65;22.67;;;21.90;99.90;;;;;;5038927;28;20057;-62
2023/07/16 09:44:13;;;;;;;27.80;23.90;;;22.00;99.90;;;;;;5043292;28;20052;-62
2023/07/16 09:46:39;;;;;;;36.30;26.75;;;22.10;99.90;;;;;;5047814;28;20375;-62
2023/07/16 09:49:05;;;;;;;34.85;24.17;;;22.10;99.90;;;;;;5035826;28;20044;-61
2023/07/16 09:51:32;;;;;;;34.20;23.88;;;22.40;99.90;;;;;;5045396;28;20051;-62
2023/07/16 09:54:01;;;;;;;33.35;26.00;;;22.30;99.90;;;;;;5049671;28;20064;-61
2023/07/16 09:56:35;;;;;;;33.65;26.55;;;22.30;99.90;;;;;;5042980;28;20071;-61
2023/07/16 09:59:02;;;;;;;29.08;21.73;;;22.30;99.90;;;;;;5047114;28;20040;-61
2023/07/16 10:01:29;;;;;;;24.95;19.05;;;21.90;99.90;;;;;;5041136;28;20041;-62
2023/07/16 10:03:54;;;;;;;32.53;18.85;;;21.80;99.90;;;;;;5036862;28;20036;-62
2023/07/16 10:06:20;;;;;;;24.45;14.68;;;22.10;99.90;;;;;;5038136;28;20115;-61
2023/07/16 10:08:50;;;;;;;26.05;14.63;;;22.40;99.90;;;;;;5039885;28;20036;-62
2023/07/16 10:11:17;;;;;;;27.70;14.10;;;22.40;99.90;;;;;;5046763;28;20032;-62
2023/07/16 10:13:43;;;;;;;25.08;13.93;;;22.50;99.90;;;;;;5037784;28;20044;-61
2023/07/16 10:16:19;;;;;;;23.42;16.10;;;22.70;99.90;;;;;;5037265;28;20037;-62
2023/07/16 10:18:53;;;;;;;30.55;16.27;;;22.80;99.90;;;;;;5042357;28;20338;-61
2023/07/16 10:21:23;;;;;;;27.42;16.50;;;22.70;99.90;;;;;;5052127;28;20032;-62
2023/07/16 10:23:58;;;;;;;34.75;18.85;;;22.30;95.20;;;;;;5051204;28;20067;-62
2023/07/16 10:26:28;;;;;;;27.73;17.63;;;22.20;97.80;;;;;;5037605;28;20155;-61
2023/07/16 10:28:54;;;;;;;28.70;19.83;;;21.90;97.70;;;;;;5035592;28;20081;-62
2023/07/16 10:31:24;;;;;;;29.48;18.60;;;21.70;99.90;;;;;;5040655;28;20067;-62
2023/07/16 10:34:07;;;;;;;31.42;18.23;;;22.20;99.90;;;;;;5043837;28;20037;-61
2023/07/16 10:36:40;;;;;;;32.20;19.98;;;21.60;99.90;;;;;;5046321;28;20118;-61
2023/07/16 10:39:06;;;;;;;31.92;22.92;;;21.40;99.90;;;;;;5050290;28;20487;-61
2023/07/16 10:41:32;;;;;;;33.60;15.95;;;21.30;99.90;;;;;;5049630;28;20040;-61
2023/07/16 10:43:59;;;;;;;38.08;20.27;;;21.50;99.90;;;;;;5030752;28;20407;-61
2023/07/16 10:46:24;;;;;;;35.50;21.50;;;21.50;99.90;;;;;;5044356;28;20025;-61
2023/07/16 10:48:50;;;;;;;29.58;17.95;;;21.50;99.90;;;;;;5045883;28;20051;-61
2023/07/16 10:51:16;;;;;;;31.42;21.70;;;21.60;99.90;;;;;;5045969;28;20083;-61
2023/07/16 10:53:44;;;;;;;41.00;25.48;;;21.40;99.90;;;;;;5038871;28;20091;-61
2023/07/16 10:56:10;;;;;;;36.15;21.35;;;21.30;99.90;;;;;;5045895;28;20041;-61
2023/07/16 10:58:37;;;;;;;28.40;14.68;;;21.30;99.90;;;;;;5044612;28;20442;-62
2023/07/16 11:01:02;;;;;;;24.35;15.60;;;21.40;99.90;;;;;;5051152;28;20036;-62
2023/07/16 11:03:28;;;;;;;32.38;13.90;;;21.60;99.90;;;;;;5050193;28;20154;-61
2023/07/16 11:05:54;;;;;;;23.40;12.93;;;21.90;99.90;;;;;;5039346;28;20117;-61
2023/07/16 11:08:23;;;;;;;28.48;14.30;;;21.90;92.60;;;;;;5012026;28;20044;-61
2023/07/16 11:10:56;;;;;;;27.00;15.70;;;21.70;83.30;;;;;;5032818;28;20441;-61
2023/07/16 11:13:29;;;;;;;27.92;14.45;;;21.90;94.00;;;;;;5051738;28;20040;-61
2023/07/16 11:15:55;;;;;;;29.42;10.60;;;22.00;91.90;;;;;;5044549;28;20949;-65
2023/07/16 11:18:26;;;;;;;25.30;12.40;;;22.00;81.20;;;;;;5042978;28;20057;-65
2023/07/16 11:20:53;;;;;;;27.77;10.57;;;22.00;63.90;;;;;;5040516;28;20459;-64
2023/07/16 11:23:18;;;;;;;26.67;10.45;;;21.90;60.00;;;;;;5038478;28;20102;-64
2023/07/16 11:25:48;;;;;;;23.40;9.70;;;21.90;49.70;;;;;;5038264;28;20148;-65
2023/07/16 11:28:14;;;;;;;32.03;14.55;;;22.10;51.70;;;;;;5041946;28;20048;-64
2023/07/16 11:30:40;;;;;;;24.75;9.73;;;22.30;65.60;;;;;;5036414;28;20046;-64
2023/07/16 11:33:13;;;;;;;24.27;9.60;;;22.30;49.30;;;;;;5045434;28;20059;-64
2023/07/16 11:35:40;;;;;;;21.85;9.75;;;22.00;26.30;;;;;;5033383;28;20456;-65
2023/07/16 11:38:06;;;;;;;23.02;9.43;;;21.80;24.60;;;;;;5038994;28;20072;-64
2023/07/16 11:40:34;;;;;;;25.20;10.75;;;21.80;16.50;;;;;;5047528;28;20068;-64
2023/07/16 11:43:09;;;;;;;22.58;10.05;;;21.50;12.40;;;;;;5047466;28;20139;-64
2023/07/16 11:45:35;;;;;;;25.42;12.93;;;21.50;7.30;;;;;;5045843;28;20090;-64
2023/07/16 11:48:02;;;;;;;26.17;16.15;;;21.40;10.30;;;;;;5049792;28;20104;-64
2023/07/16 11:50:29;;;;;;;30.50;13.70;;;21.30;21.80;;;;;;5048026;28;20089;-64
2023/07/16 11:52:56;;;;;;;24.23;13.63;;;21.30;29.70;;;;;;5043398;28;20032;-63
2023/07/16 11:55:22;;;;;;;34.78;18.75;;;21.20;26.80;;;;;;5045232;28;20032;-64
2023/07/16 11:57:48;;;;;;;31.17;21.42;;;21.00;31.20;;;;;;5046498;28;20097;-64
2023/07/16 12:00:14;;;;;;;25.42;18.15;;;20.90;53.70;;;;;;5047722;28;20048;-63
2023/07/16 12:02:40;;;;;;;22.90;16.15;;;20.80;51.80;;;;;;5031678;28;20037;-64
2023/07/16 12:05:06;;;;;;;22.23;15.93;;;20.40;42.50;;;;;;5045364;28;20497;-63
2023/07/16 12:07:34;;;;;;;27.17;19.58;;;20.10;48.10;;;;;;5040233;28;20039;-64
2023/07/16 12:10:01;;;;;;;22.83;18.23;;;19.90;63.60;;;;;;5036992;28;20056;-64
2023/07/16 12:12:26;;;;;;;24.45;15.43;;;19.90;91.00;;;;;;5029658;28;20049;-63
2023/07/16 12:14:52;;;;;;;31.67;15.63;;;20.00;69.70;;;;;;5047009;28;20722;-64
2023/07/16 12:17:17;;;;;;;29.40;18.05;;;20.20;74.10;;;;;;5041443;28;20048;-64
2023/07/16 12:19:43;;;;;;;27.77;16.73;;;20.70;91.00;;;;;;5038966;28;20041;-64
2023/07/16 12:22:09;;;;;;;22.48;12.38;;;20.70;97.30;;;;;;5049193;28;20094;-64
2023/07/16 12:24:35;;;;;;;26.30;15.93;;;20.80;69.60;;;;;;5047857;28;20040;-64